sensor_id;sensor_type;location;lat;lon;timestamp;pressure;altitude;pressure_sealevel;temperature;humidity
83843;BME280;73869;52.336;21.182;2024-02-26T00:00:17;99819.22;;;3.36;98.85
83843;BME280;73869;52.336;21.182;2024-02-26T00:02:44;99803.06;;;3.15;98.32
83843;BME280;73869;52.336;21.182;2024-02-26T00:05:12;99802.25;;;3.14;100.00
83843;BME280;73869;52.336;21.182;2024-02-26T00:07:39;99801.69;;;3.19;99.92
83843;BME280;73869;52.336;21.182;2024-02-26T00:10:06;99802.16;;;3.22;99.89
83843;BME280;73869;52.336;21.182;2024-02-26T00:12:33;99802.78;;;3.24;98.99
83843;BME280;73869;52.336;21.182;2024-02-26T00:15:00;99803.03;;;3.29;98.45
83843;BME280;73869;52.336;21.182;2024-02-26T00:17:27;99800.75;;;3.26;98.99
83843;BME280;73869;52.336;21.182;2024-02-26T00:19:54;99798.81;;;3.20;98.83
83843;BME280;73869;52.336;21.182;2024-02-26T00:22:22;99798.44;;;3.23;99.45
83843;BME280;73869;52.336;21.182;2024-02-26T00:24:48;99796.97;;;3.21;99.48
83843;BME280;73869;52.336;21.182;2024-02-26T00:27:15;99798.63;;;3.22;100.00
83843;BME280;73869;52.336;21.182;2024-02-26T00:29:42;99800.09;;;3.39;100.00
83843;BME280;73869;52.336;21.182;2024-02-26T00:32:09;99801.09;;;3.38;100.00
83843;BME280;73869;52.336;21.182;2024-02-26T00:34:36;99802.59;;;3.40;100.00
83843;BME280;73869;52.336;21.182;2024-02-26T00:37:02;99799.91;;;3.40;100.00
83843;BME280;73869;52.336;21.182;2024-02-26T00:39:31;99800.44;;;3.36;100.00
83843;BME280;73869;52.336;21.182;2024-02-26T00:41:57;99792.38;;;3.36;100.00
83843;BME280;73869;52.336;21.182;2024-02-26T00:44:24;99787.66;;;3.38;100.00
83843;BME280;73869;52.336;21.182;2024-02-26T00:46:51;99785.28;;;3.28;100.00
83843;BME280;73869;52.336;21.182;2024-02-26T00:49:18;99774.66;;;3.20;100.00
83843;BME280;73869;52.336;21.182;2024-02-26T00:51:44;99790.78;;;3.20;100.00
83843;BME280;73869;52.336;21.182;2024-02-26T00:54:11;99789.75;;;3.21;100.00
83843;BME280;73869;52.336;21.182;2024-02-26T00:56:39;99786.88;;;3.23;100.00
83843;BME280;73869;52.336;21.182;2024-02-26T00:59:06;99787.81;;;3.15;100.00
83843;BME280;73869;52.336;21.182;2024-02-26T01:01:33;99786.16;;;3.14;100.00
83843;BME280;73869;52.336;21.182;2024-02-26T01:04:00;99790.03;;;3.12;100.00
83843;BME280;73869;52.336;21.182;2024-02-26T01:06:26;99773.47;;;3.08;100.00
83843;BME280;73869;52.336;21.182;2024-02-26T01:08:53;99775.97;;;3.10;100.00
83843;BME280;73869;52.336;21.182;2024-02-26T01:11:20;99778.66;;;3.10;100.00
83843;BME280;73869;52.336;21.182;2024-02-26T01:13:48;99773.00;;;3.05;99.69
83843;BME280;73869;52.336;21.182;2024-02-26T01:16:18;99781.06;;;3.05;100.00
83843;BME280;73869;52.336;21.182;2024-02-26T01:18:45;99779.03;;;3.07;99.97
83843;BME280;73869;52.336;21.182;2024-02-26T01:21:12;99773.84;;;3.05;100.00
83843;BME280;73869;52.336;21.182;2024-02-26T01:23:38;99777.56;;;3.04;99.61
83843;BME280;73869;52.336;21.182;2024-02-26T01:26:05;99778.38;;;3.05;99.03
83843;BME280;73869;52.336;21.182;2024-02-26T01:28:32;99772.31;;;2.96;99.39
83843;BME280;73869;52.336;21.182;2024-02-26T01:31:00;99778.13;;;2.85;99.37
83843;BME280;73869;52.336;21.182;2024-02-26T01:33:28;99774.53;;;2.78;99.53
83843;BME280;73869;52.336;21.182;2024-02-26T01:35:55;99767.13;;;2.80;99.46
83843;BME280;73869;52.336;21.182;2024-02-26T01:38:21;99773.69;;;2.78;99.84
83843;BME280;73869;52.336;21.182;2024-02-26T01:40:48;99770.66;;;2.66;99.95
83843;BME280;73869;52.336;21.182;2024-02-26T01:43:18;99774.25;;;2.58;100.00
83843;BME280;73869;52.336;21.182;2024-02-26T01:45:45;99777.13;;;2.57;100.00
83843;BME280;73869;52.336;21.182;2024-02-26T01:48:13;99778.97;;;2.56;100.00
83843;BME280;73869;52.336;21.182;2024-02-26T01:50:40;99781.84;;;2.55;100.00
83843;BME280;73869;52.336;21.182;2024-02-26T01:53:08;99775.81;;;2.53;100.00
83843;BME280;73869;52.336;21.182;2024-02-26T01:55:35;99783.84;;;2.53;100.00
83843;BME280;73869;52.336;21.182;2024-02-26T01:58:06;99779.25;;;2.47;100.00
83843;BME280;73869;52.336;21.182;2024-02-26T02:00:33;99783.09;;;2.44;100.00
83843;BME280;73869;52.336;21.182;2024-02-26T02:03:01;99778.94;;;2.42;100.00
83843;BME280;73869;52.336;21.182;2024-02-26T02:05:30;99791.31;;;2.43;100.00
83843;BME280;73869;52.336;21.182;2024-02-26T02:07:58;99786.34;;;2.40;100.00
83843;BME280;73869;52.336;21.182;2024-02-26T02:10:26;99779.47;;;2.37;100.00
83843;BME280;73869;52.336;21.182;2024-02-26T02:12:53;99783.84;;;2.38;99.69
83843;BME280;73869;52.336;21.182;2024-02-26T02:15:20;99784.22;;;2.35;99.46
83843;BME280;73869;52.336;21.182;2024-02-26T02:17:47;99786.13;;;2.27;100.00
83843;BME280;73869;52.336;21.182;2024-02-26T02:20:16;99782.56;;;2.12;100.00
83843;BME280;73869;52.336;21.182;2024-02-26T02:22:44;99783.50;;;2.04;100.00
83843;BME280;73869;52.336;21.182;2024-02-26T02:25:11;99790.22;;;2.00;100.00
83843;BME280;73869;52.336;21.182;2024-02-26T02:27:39;99786.56;;;1.93;100.00
83843;BME280;73869;52.336;21.182;2024-02-26T02:30:06;99789.31;;;1.85;100.00
83843;BME280;73869;52.336;21.182;2024-02-26T02:32:34;99791.66;;;1.88;100.00
83843;BME280;73869;52.336;21.182;2024-02-26T02:35:02;99794.78;;;1.92;100.00
83843;BME280;73869;52.336;21.182;2024-02-26T02:37:29;99798.13;;;1.94;100.00
83843;BME280;73869;52.336;21.182;2024-02-26T02:39:57;99796.59;;;1.99;100.00
83843;BME280;73869;52.336;21.182;2024-02-26T02:42:24;99796.78;;;1.98;100.00
83843;BME280;73869;52.336;21.182;2024-02-26T02:44:51;99802.59;;;2.01;100.00
83843;BME280;73869;52.336;21.182;2024-02-26T02:47:17;99794.72;;;2.00;100.00
83843;BME280;73869;52.336;21.182;2024-02-26T02:49:44;99799.25;;;1.99;100.00
83843;BME280;73869;52.336;21.182;2024-02-26T02:52:11;99801.16;;;1.91;99.86
83843;BME280;73869;52.336;21.182;2024-02-26T02:54:38;99805.19;;;1.87;100.00
83843;BME280;73869;52.336;21.182;2024-02-26T02:57:08;99800.56;;;1.81;100.00
83843;BME280;73869;52.336;21.182;2024-02-26T02:59:35;99791.75;;;1.72;100.00
83843;BME280;73869;52.336;21.182;2024-02-26T03:02:03;99811.47;;;1.79;100.00
83843;BME280;73869;52.336;21.182;2024-02-26T03:04:32;99813.28;;;1.79;100.00
83843;BME280;73869;52.336;21.182;2024-02-26T03:06:58;99812.31;;;1.80;100.00
83843;BME280;73869;52.336;21.182;2024-02-26T03:09:25;99815.97;;;1.79;100.00
83843;BME280;73869;52.336;21.182;2024-02-26T03:11:52;99819.31;;;1.81;100.00
83843;BME280;73869;52.336;21.182;2024-02-26T03:14:20;99805.63;;;1.76;100.00
83843;BME280;73869;52.336;21.182;2024-02-26T03:16:47;99802.81;;;1.69;100.00
83843;BME280;73869;52.336;21.182;2024-02-26T03:19:14;99813.53;;;1.69;100.00
83843;BME280;73869;52.336;21.182;2024-02-26T03:21:41;99820.91;;;1.67;100.00
83843;BME280;73869;52.336;21.182;2024-02-26T03:24:08;99826.91;;;1.69;100.00
83843;BME280;73869;52.336;21.182;2024-02-26T03:26:35;99823.06;;;1.72;100.00
83843;BME280;73869;52.336;21.182;2024-02-26T03:29:02;99825.03;;;1.78;100.00
83843;BME280;73869;52.336;21.182;2024-02-26T03:31:30;99828.53;;;1.78;100.00
83843;BME280;73869;52.336;21.182;2024-02-26T03:33:57;99825.56;;;1.73;100.00
83843;BME280;73869;52.336;21.182;2024-02-26T03:36:24;99835.59;;;1.71;100.00
83843;BME280;73869;52.336;21.182;2024-02-26T03:38:51;99827.94;;;1.68;100.00
83843;BME280;73869;52.336;21.182;2024-02-26T03:41:17;99833.81;;;1.64;100.00
83843;BME280;73869;52.336;21.182;2024-02-26T03:43:44;99826.78;;;1.63;100.00
83843;BME280;73869;52.336;21.182;2024-02-26T03:46:11;99823.63;;;1.59;100.00
83843;BME280;73869;52.336;21.182;2024-02-26T03:48:40;99831.47;;;1.61;100.00
83843;BME280;73869;52.336;21.182;2024-02-26T03:51:08;99827.63;;;1.63;100.00
83843;BME280;73869;52.336;21.182;2024-02-26T03:53:35;99823.28;;;1.62;100.00
83843;BME280;73869;52.336;21.182;2024-02-26T03:56:03;99828.13;;;1.67;100.00
83843;BME280;73869;52.336;21.182;2024-02-26T03:58:30;99822.81;;;1.59;100.00
83843;BME280;73869;52.336;21.182;2024-02-26T04:00:57;99831.28;;;1.62;100.00
83843;BME280;73869;52.336;21.182;2024-02-26T04:03:23;99833.16;;;1.62;100.00
83843;BME280;73869;52.336;21.182;2024-02-26T04:05:52;99829.81;;;1.60;100.00
83843;BME280;73869;52.336;21.182;2024-02-26T04:08:19;99826.06;;;1.69;100.00
83843;BME280;73869;52.336;21.182;2024-02-26T04:10:45;99827.75;;;1.70;100.00
83843;BME280;73869;52.336;21.182;2024-02-26T04:13:12;99820.09;;;1.67;100.00
83843;BME280;73869;52.336;21.182;2024-02-26T04:15:39;99831.44;;;1.69;100.00
83843;BME280;73869;52.336;21.182;2024-02-26T04:18:05;99825.63;;;1.65;100.00
83843;BME280;73869;52.336;21.182;2024-02-26T04:20:32;99833.28;;;1.68;100.00
83843;BME280;73869;52.336;21.182;2024-02-26T04:23:00;99828.88;;;1.75;100.00
83843;BME280;73869;52.336;21.182;2024-02-26T04:25:27;99823.06;;;1.72;100.00
83843;BME280;73869;52.336;21.182;2024-02-26T04:27:54;99822.59;;;1.68;100.00
83843;BME280;73869;52.336;21.182;2024-02-26T04:30:21;99814.06;;;1.65;100.00
83843;BME280;73869;52.336;21.182;2024-02-26T04:32:47;99824.94;;;1.63;100.00
83843;BME280;73869;52.336;21.182;2024-02-26T04:35:14;99822.47;;;1.62;100.00
83843;BME280;73869;52.336;21.182;2024-02-26T04:37:41;99821.91;;;1.66;100.00
83843;BME280;73869;52.336;21.182;2024-02-26T04:40:10;99821.06;;;1.66;100.00
83843;BME280;73869;52.336;21.182;2024-02-26T04:42:37;99817.91;;;1.62;100.00
83843;BME280;73869;52.336;21.182;2024-02-26T04:45:04;99819.53;;;1.71;100.00
83843;BME280;73869;52.336;21.182;2024-02-26T04:47:32;99817.00;;;1.78;100.00
83843;BME280;73869;52.336;21.182;2024-02-26T04:49:59;99819.72;;;1.70;100.00
83843;BME280;73869;52.336;21.182;2024-02-26T04:52:25;99815.91;;;1.64;100.00
83843;BME280;73869;52.336;21.182;2024-02-26T04:54:52;99822.47;;;1.62;100.00
83843;BME280;73869;52.336;21.182;2024-02-26T04:57:21;99816.63;;;1.58;100.00
83843;BME280;73869;52.336;21.182;2024-02-26T04:59:48;99825.38;;;1.52;100.00
83843;BME280;73869;52.336;21.182;2024-02-26T05:02:14;99829.22;;;1.50;100.00
83843;BME280;73869;52.336;21.182;2024-02-26T05:04:41;99828.72;;;1.46;100.00
83843;BME280;73869;52.336;21.182;2024-02-26T05:07:07;99833.09;;;1.47;100.00
83843;BME280;73869;52.336;21.182;2024-02-26T05:09:34;99824.56;;;1.44;100.00
83843;BME280;73869;52.336;21.182;2024-02-26T05:12:01;99824.75;;;1.42;100.00
83843;BME280;73869;52.336;21.182;2024-02-26T05:14:30;99818.72;;;1.40;100.00
83843;BME280;73869;52.336;21.182;2024-02-26T05:16:57;99823.41;;;1.38;100.00
83843;BME280;73869;52.336;21.182;2024-02-26T05:19:23;99839.28;;;1.39;100.00
83843;BME280;73869;52.336;21.182;2024-02-26T05:21:50;99835.94;;;1.37;100.00
83843;BME280;73869;52.336;21.182;2024-02-26T05:24:17;99844.63;;;1.39;100.00
83843;BME280;73869;52.336;21.182;2024-02-26T05:26:45;99843.16;;;1.37;100.00
83843;BME280;73869;52.336;21.182;2024-02-26T05:29:11;99842.16;;;1.38;100.00
83843;BME280;73869;52.336;21.182;2024-02-26T05:31:41;99838.47;;;1.39;100.00
83843;BME280;73869;52.336;21.182;2024-02-26T05:34:08;99848.28;;;1.47;100.00
83843;BME280;73869;52.336;21.182;2024-02-26T05:36:35;99843.25;;;1.52;100.00
83843;BME280;73869;52.336;21.182;2024-02-26T05:39:02;99853.41;;;1.56;100.00
83843;BME280;73869;52.336;21.182;2024-02-26T05:41:29;99840.88;;;1.57;100.00
83843;BME280;73869;52.336;21.182;2024-02-26T05:43:56;99847.22;;;1.64;100.00
83843;BME280;73869;52.336;21.182;2024-02-26T05:46:23;99862.56;;;1.70;100.00
83843;BME280;73869;52.336;21.182;2024-02-26T05:48:52;99861.00;;;1.75;100.00
83843;BME280;73869;52.336;21.182;2024-02-26T05:51:19;99857.16;;;1.78;100.00
83843;BME280;73869;52.336;21.182;2024-02-26T05:53:46;99853.94;;;1.82;100.00
83843;BME280;73869;52.336;21.182;2024-02-26T05:56:19;99857.94;;;1.86;100.00
83843;BME280;73869;52.336;21.182;2024-02-26T05:58:47;99853.56;;;1.85;100.00
83843;BME280;73869;52.336;21.182;2024-02-26T06:01:15;99860.56;;;1.94;100.00
83843;BME280;73869;52.336;21.182;2024-02-26T06:03:42;99855.50;;;1.99;100.00
83843;BME280;73869;52.336;21.182;2024-02-26T06:06:10;99860.31;;;2.04;100.00
83843;BME280;73869;52.336;21.182;2024-02-26T06:08:36;99865.66;;;2.04;100.00
83843;BME280;73869;52.336;21.182;2024-02-26T06:11:05;99852.88;;;1.91;100.00
83843;BME280;73869;52.336;21.182;2024-02-26T06:13:32;99860.06;;;1.91;100.00
83843;BME280;73869;52.336;21.182;2024-02-26T06:15:59;99868.88;;;1.99;100.00
83843;BME280;73869;52.336;21.182;2024-02-26T06:18:25;99871.19;;;2.02;100.00
83843;BME280;73869;52.336;21.182;2024-02-26T06:20:52;99869.56;;;2.01;100.00
83843;BME280;73869;52.336;21.182;2024-02-26T06:23:20;99873.16;;;2.08;100.00
83843;BME280;73869;52.336;21.182;2024-02-26T06:25:47;99878.94;;;2.20;100.00
83843;BME280;73869;52.336;21.182;2024-02-26T06:28:14;99868.34;;;2.26;100.00
83843;BME280;73869;52.336;21.182;2024-02-26T06:30:41;99868.81;;;2.30;100.00
83843;BME280;73869;52.336;21.182;2024-02-26T06:33:07;99875.13;;;2.37;100.00
83843;BME280;73869;52.336;21.182;2024-02-26T06:35:34;99872.44;;;2.37;100.00
83843;BME280;73869;52.336;21.182;2024-02-26T06:38:01;99876.78;;;2.38;100.00
83843;BME280;73869;52.336;21.182;2024-02-26T06:40:30;99869.94;;;2.35;100.00
83843;BME280;73869;52.336;21.182;2024-02-26T06:42:56;99871.31;;;2.31;100.00
83843;BME280;73869;52.336;21.182;2024-02-26T06:45:23;99874.38;;;2.43;100.00
83843;BME280;73869;52.336;21.182;2024-02-26T06:47:50;99885.41;;;2.48;100.00
83843;BME280;73869;52.336;21.182;2024-02-26T06:50:16;99883.88;;;2.53;100.00
83843;BME280;73869;52.336;21.182;2024-02-26T06:52:44;99879.31;;;2.54;100.00
83843;BME280;73869;52.336;21.182;2024-02-26T06:55:11;99886.47;;;2.61;100.00
83843;BME280;73869;52.336;21.182;2024-02-26T06:57:40;99883.72;;;2.69;100.00
83843;BME280;73869;52.336;21.182;2024-02-26T07:00:07;99872.25;;;2.75;100.00
83843;BME280;73869;52.336;21.182;2024-02-26T07:02:40;99880.97;;;2.92;100.00
83843;BME280;73869;52.336;21.182;2024-02-26T07:05:07;99884.69;;;3.06;100.00
83843;BME280;73869;52.336;21.182;2024-02-26T07:07:34;99890.31;;;3.11;100.00
83843;BME280;73869;52.336;21.182;2024-02-26T07:10:01;99874.22;;;3.11;100.00
83843;BME280;73869;52.336;21.182;2024-02-26T07:12:29;99890.50;;;3.38;100.00
83843;BME280;73869;52.336;21.182;2024-02-26T07:14:57;99895.78;;;3.46;100.00
83843;BME280;73869;52.336;21.182;2024-02-26T07:17:24;99890.38;;;3.61;100.00
83843;BME280;73869;52.336;21.182;2024-02-26T07:19:50;99889.34;;;3.76;100.00
83843;BME280;73869;52.336;21.182;2024-02-26T07:22:17;99888.69;;;3.74;100.00
83843;BME280;73869;52.336;21.182;2024-02-26T07:24:44;99891.03;;;3.98;100.00
83843;BME280;73869;52.336;21.182;2024-02-26T07:27:11;99901.09;;;4.32;100.00
83843;BME280;73869;52.336;21.182;2024-02-26T07:29:37;99900.56;;;4.64;100.00
83843;BME280;73869;52.336;21.182;2024-02-26T07:32:06;99900.28;;;4.80;100.00
83843;BME280;73869;52.336;21.182;2024-02-26T07:34:33;99906.78;;;5.20;100.00
83843;BME280;73869;52.336;21.182;2024-02-26T07:36:59;99904.09;;;5.54;100.00
83843;BME280;73869;52.336;21.182;2024-02-26T07:39:26;99902.56;;;5.79;100.00
83843;BME280;73869;52.336;21.182;2024-02-26T07:41:53;99908.91;;;6.19;100.00
83843;BME280;73869;52.336;21.182;2024-02-26T07:44:20;99903.41;;;6.46;100.00
83843;BME280;73869;52.336;21.182;2024-02-26T07:46:47;99903.63;;;6.77;100.00
83843;BME280;73869;52.336;21.182;2024-02-26T07:49:14;99907.97;;;7.05;100.00
83843;BME280;73869;52.336;21.182;2024-02-26T07:51:41;99900.88;;;7.30;100.00
83843;BME280;73869;52.336;21.182;2024-02-26T07:54:07;99901.63;;;7.56;100.00
83843;BME280;73869;52.336;21.182;2024-02-26T07:56:34;99906.75;;;7.84;100.00
83843;BME280;73869;52.336;21.182;2024-02-26T07:59:01;99919.94;;;8.11;99.21
83843;BME280;73869;52.336;21.182;2024-02-26T08:01:28;99914.25;;;8.33;98.22
83843;BME280;73869;52.336;21.182;2024-02-26T08:03:55;99915.53;;;8.55;96.50
83843;BME280;73869;52.336;21.182;2024-02-26T08:06:23;99913.97;;;8.72;95.33
83843;BME280;73869;52.336;21.182;2024-02-26T08:08:50;99908.00;;;8.88;95.56
83843;BME280;73869;52.336;21.182;2024-02-26T08:11:16;99916.13;;;9.12;94.30
83843;BME280;73869;52.336;21.182;2024-02-26T08:13:43;99920.97;;;9.28;93.97
83843;BME280;73869;52.336;21.182;2024-02-26T08:16:10;99925.75;;;9.51;92.28
83843;BME280;73869;52.336;21.182;2024-02-26T08:18:37;99922.63;;;9.72;92.70
83843;BME280;73869;52.336;21.182;2024-02-26T08:21:04;99928.63;;;9.92;91.40
83843;BME280;73869;52.336;21.182;2024-02-26T08:23:32;99919.28;;;10.06;89.23
83843;BME280;73869;52.336;21.182;2024-02-26T08:25:59;99920.66;;;10.15;90.25
83843;BME280;73869;52.336;21.182;2024-02-26T08:28:26;99928.25;;;10.25;89.82
83843;BME280;73869;52.336;21.182;2024-02-26T08:30:53;99920.28;;;10.41;90.41
83843;BME280;73869;52.336;21.182;2024-02-26T08:33:19;99916.47;;;10.60;89.53
83843;BME280;73869;52.336;21.182;2024-02-26T08:35:46;99923.50;;;10.79;88.17
83843;BME280;73869;52.336;21.182;2024-02-26T08:38:13;99915.91;;;10.70;87.58
83843;BME280;73869;52.336;21.182;2024-02-26T08:40:41;99920.69;;;10.86;86.98
83843;BME280;73869;52.336;21.182;2024-02-26T08:43:08;99921.19;;;11.06;86.90
83843;BME280;73869;52.336;21.182;2024-02-26T08:45:35;99921.75;;;11.08;86.48
83843;BME280;73869;52.336;21.182;2024-02-26T08:48:02;99925.31;;;11.20;86.87
83843;BME280;73869;52.336;21.182;2024-02-26T08:50:28;99928.53;;;11.40;85.20
83843;BME280;73869;52.336;21.182;2024-02-26T08:52:55;99922.38;;;11.45;85.90
83843;BME280;73869;52.336;21.182;2024-02-26T08:55:22;99923.34;;;11.39;84.05
83843;BME280;73869;52.336;21.182;2024-02-26T08:57:50;99926.88;;;11.51;84.28
83843;BME280;73869;52.336;21.182;2024-02-26T09:00:17;99924.50;;;11.54;83.80
83843;BME280;73869;52.336;21.182;2024-02-26T09:02:45;99923.94;;;11.41;83.94
83843;BME280;73869;52.336;21.182;2024-02-26T09:05:12;99910.34;;;11.29;83.43
83843;BME280;73869;52.336;21.182;2024-02-26T09:07:39;99920.84;;;11.49;85.49
83843;BME280;73869;52.336;21.182;2024-02-26T09:10:06;99928.53;;;11.52;84.51
83843;BME280;73869;52.336;21.182;2024-02-26T09:12:35;99925.22;;;11.27;84.88
83843;BME280;73869;52.336;21.182;2024-02-26T09:15:05;99930.53;;;11.45;84.84
83843;BME280;73869;52.336;21.182;2024-02-26T09:17:31;99943.66;;;11.59;84.62
83843;BME280;73869;52.336;21.182;2024-02-26T09:19:58;99938.56;;;11.51;84.11
83843;BME280;73869;52.336;21.182;2024-02-26T09:22:25;99934.44;;;11.60;85.02
83843;BME280;73869;52.336;21.182;2024-02-26T09:24:52;99941.69;;;11.66;83.55
83843;BME280;73869;52.336;21.182;2024-02-26T09:27:19;99940.69;;;11.61;84.80
83843;BME280;73869;52.336;21.182;2024-02-26T09:29:45;99939.78;;;11.44;84.30
83843;BME280;73869;52.336;21.182;2024-02-26T09:32:13;99942.94;;;11.52;84.36
83843;BME280;73869;52.336;21.182;2024-02-26T09:34:40;99940.81;;;11.54;85.48
83843;BME280;73869;52.336;21.182;2024-02-26T09:37:07;99944.84;;;11.52;84.38
83843;BME280;73869;52.336;21.182;2024-02-26T09:39:34;99940.47;;;11.51;84.68
83843;BME280;73869;52.336;21.182;2024-02-26T09:42:04;99934.22;;;11.50;84.55
83843;BME280;73869;52.336;21.182;2024-02-26T09:44:36;99933.53;;;11.66;84.11
83843;BME280;73869;52.336;21.182;2024-02-26T09:47:05;99941.19;;;11.81;84.59
83843;BME280;73869;52.336;21.182;2024-02-26T09:49:36;99934.66;;;11.82;83.75
83843;BME280;73869;52.336;21.182;2024-02-26T09:52:04;99943.44;;;11.84;81.91
83843;BME280;73869;52.336;21.182;2024-02-26T09:54:32;99942.47;;;11.90;83.24
83843;BME280;73869;52.336;21.182;2024-02-26T09:57:01;99944.97;;;11.91;82.19
83843;BME280;73869;52.336;21.182;2024-02-26T09:59:29;99942.84;;;11.82;82.91
83843;BME280;73869;52.336;21.182;2024-02-26T10:02:00;99953.72;;;11.93;82.79
83843;BME280;73869;52.336;21.182;2024-02-26T10:04:28;99949.31;;;12.04;83.29
83843;BME280;73869;52.336;21.182;2024-02-26T10:06:57;99953.19;;;12.08;82.56
83843;BME280;73869;52.336;21.182;2024-02-26T10:09:25;99959.09;;;12.16;83.30
83843;BME280;73869;52.336;21.182;2024-02-26T10:11:53;99960.41;;;12.26;81.53
83843;BME280;73869;52.336;21.182;2024-02-26T10:14:20;99955.94;;;11.96;81.18
83843;BME280;73869;52.336;21.182;2024-02-26T10:16:49;99968.75;;;11.84;84.12
83843;BME280;73869;52.336;21.182;2024-02-26T10:19:24;99964.34;;;11.95;82.88
83843;BME280;73869;52.336;21.182;2024-02-26T10:21:57;99971.13;;;11.81;83.22
83843;BME280;73869;52.336;21.182;2024-02-26T10:24:24;99968.53;;;11.86;84.16
83843;BME280;73869;52.336;21.182;2024-02-26T10:26:51;99962.84;;;11.87;82.59
83843;BME280;73869;52.336;21.182;2024-02-26T10:29:18;99969.47;;;11.80;84.08
83843;BME280;73869;52.336;21.182;2024-02-26T10:31:45;99958.13;;;11.71;82.24
83843;BME280;73869;52.336;21.182;2024-02-26T10:34:12;99972.31;;;11.73;83.66
83843;BME280;73869;52.336;21.182;2024-02-26T10:36:39;99967.09;;;11.72;85.13
83843;BME280;73869;52.336;21.182;2024-02-26T10:39:07;99968.13;;;11.59;82.53
83843;BME280;73869;52.336;21.182;2024-02-26T10:41:34;99979.59;;;11.27;83.55
83843;BME280;73869;52.336;21.182;2024-02-26T10:44:01;99971.56;;;11.32;84.13
83843;BME280;73869;52.336;21.182;2024-02-26T10:46:29;99961.28;;;11.45;84.76
83843;BME280;73869;52.336;21.182;2024-02-26T10:48:56;99966.50;;;11.58;83.71
83843;BME280;73869;52.336;21.182;2024-02-26T10:51:26;99967.69;;;11.74;83.11
83843;BME280;73869;52.336;21.182;2024-02-26T10:53:56;99971.72;;;11.94;81.82
83843;BME280;73869;52.336;21.182;2024-02-26T10:56:27;99971.22;;;12.09;82.12
83843;BME280;73869;52.336;21.182;2024-02-26T10:58:55;99954.34;;;12.24;80.67
83843;BME280;73869;52.336;21.182;2024-02-26T11:01:22;99964.00;;;12.43;81.47
83843;BME280;73869;52.336;21.182;2024-02-26T11:03:51;99966.88;;;12.25;79.96
83843;BME280;73869;52.336;21.182;2024-02-26T11:06:19;99957.44;;;12.55;78.43
83843;BME280;73869;52.336;21.182;2024-02-26T11:08:48;99956.75;;;12.76;78.41
83843;BME280;73869;52.336;21.182;2024-02-26T11:11:15;99958.00;;;12.57;77.29
83843;BME280;73869;52.336;21.182;2024-02-26T11:13:46;99952.97;;;12.49;77.95
83843;BME280;73869;52.336;21.182;2024-02-26T11:16:18;99953.53;;;12.51;77.54
83843;BME280;73869;52.336;21.182;2024-02-26T11:18:46;99941.22;;;12.77;78.61
83843;BME280;73869;52.336;21.182;2024-02-26T11:21:16;99946.50;;;13.28;75.60
83843;BME280;73869;52.336;21.182;2024-02-26T11:23:44;99950.75;;;13.19;75.28
83843;BME280;73869;52.336;21.182;2024-02-26T11:26:13;99940.53;;;13.14;76.76
83843;BME280;73869;52.336;21.182;2024-02-26T11:28:41;99946.25;;;13.46;74.10
83843;BME280;73869;52.336;21.182;2024-02-26T11:31:10;99935.91;;;13.48;74.57
83843;BME280;73869;52.336;21.182;2024-02-26T11:33:38;99938.25;;;13.23;73.81
83843;BME280;73869;52.336;21.182;2024-02-26T11:36:08;99939.75;;;13.14;76.65
83843;BME280;73869;52.336;21.182;2024-02-26T11:38:36;99942.56;;;13.19;75.61
83843;BME280;73869;52.336;21.182;2024-02-26T11:41:03;99947.75;;;13.37;75.24
83843;BME280;73869;52.336;21.182;2024-02-26T11:43:50;99948.41;;;13.44;73.71
83843;BME280;73869;52.336;21.182;2024-02-26T11:46:29;99950.53;;;13.59;75.48
83843;BME280;73869;52.336;21.182;2024-02-26T11:48:58;99936.69;;;13.43;72.06
83843;BME280;73869;52.336;21.182;2024-02-26T11:51:26;99943.34;;;13.52;74.71
83843;BME280;73869;52.336;21.182;2024-02-26T11:53:54;99941.19;;;13.55;73.61
83843;BME280;73869;52.336;21.182;2024-02-26T11:56:23;99930.19;;;13.66;71.89
83843;BME280;73869;52.336;21.182;2024-02-26T11:59:00;99944.38;;;14.06;71.26
83843;BME280;73869;52.336;21.182;2024-02-26T12:01:42;99938.59;;;14.24;69.99
83843;BME280;73869;52.336;21.182;2024-02-26T12:04:14;99936.88;;;14.35;69.17
83843;BME280;73869;52.336;21.182;2024-02-26T12:06:47;99936.97;;;14.71;71.61
83843;BME280;73869;52.336;21.182;2024-02-26T12:09:35;99927.19;;;14.27;68.05
83843;BME280;73869;52.336;21.182;2024-02-26T12:12:04;99933.53;;;14.11;68.57
83843;BME280;73869;52.336;21.182;2024-02-26T12:14:33;99941.34;;;14.46;70.84
83843;BME280;73869;52.336;21.182;2024-02-26T12:17:02;99940.66;;;14.55;67.91
83843;BME280;73869;52.336;21.182;2024-02-26T12:19:32;99933.94;;;14.95;70.99
83843;BME280;73869;52.336;21.182;2024-02-26T12:22:00;99932.44;;;15.09;67.69
83843;BME280;73869;52.336;21.182;2024-02-26T12:24:26;99938.44;;;15.06;65.61
83843;BME280;73869;52.336;21.182;2024-02-26T12:26:53;99930.56;;;15.14;67.63
83843;BME280;73869;52.336;21.182;2024-02-26T12:29:20;99933.69;;;15.28;66.13
83843;BME280;73869;52.336;21.182;2024-02-26T12:31:47;99920.50;;;15.51;65.50
83843;BME280;73869;52.336;21.182;2024-02-26T12:34:15;99927.53;;;15.42;63.58
83843;BME280;73869;52.336;21.182;2024-02-26T12:36:42;99921.47;;;15.77;64.60
83843;BME280;73869;52.336;21.182;2024-02-26T12:39:09;99929.34;;;15.68;62.50
83843;BME280;73869;52.336;21.182;2024-02-26T12:41:37;99937.03;;;15.35;63.85
83843;BME280;73869;52.336;21.182;2024-02-26T12:44:04;99930.13;;;15.27;64.44
83843;BME280;73869;52.336;21.182;2024-02-26T12:46:32;99924.31;;;15.50;65.22
83843;BME280;73869;52.336;21.182;2024-02-26T12:48:59;99930.56;;;15.46;65.15
83843;BME280;73869;52.336;21.182;2024-02-26T12:51:27;99924.03;;;15.52;64.37